Hauptseite
METAR-TAF:

METAR-TAF

Flughäfen :

Gran Canaria, Spanien

Flughafen Gran Canaria

Breite: 27-56N, Länge: 015-23W, Höhe: 23 m

Beobachtung

Neuester Wetterbericht von vor 13 Minuten, um 22:30 UTC
Wind 11 kt aus Nord/Nordost
Temperatur 21°C
Luftfeuchtigkeit 73%
Luftdruck 1018 hPa
Sichtweite 10 km oder mehr
Durchbrochene Bewölkung in der Höhe von 2400 ft

METAR: GCLP 172230Z 03011KT 9999 BKN024 21/16 Q1018 NOSIG

Zeit: 22:43 (22:43 UTC)

Prognose

Neuester Wetterbericht von vor 2 Stunden und 43 Minuten, um 20:00 UTC
Gültige Prognose vom 17 um 21 UTC bis 18 um 21 UTC
Wind 10 kt aus Nordost
Sichtweite 10 km oder mehr
Leicht bewölkt in der Höhe von 2500 ft
Übergehend zu
vom 17 um 21 UTC bis 17 um 22 UTC
Wind 5 kt aus Nord/Nordwest

TAF: GCLP 172000Z 1721/1821 04010KT 9999 FEW025 TX23/1814Z TN18/1806Z BECMG 1721/1722 34005KT

Wetterbeobachtungen und Prognosen von mehr als 4000 Flughäfen (METAR und TAF Bericht).

Die verfügbaren Stationen werden durch gelbe und rote Markierungen auf der Karte dargestellt.

Führen Sie die Maus auf sie, um den Namen der Station zu sehen.

Darauf klicken, um die Beobachtung von Wetterbeobachtungen und Prognosen zu sehen.

Um die Karte zu ändern : klicken Sie auf den grünen Tasten mit einem schwarzen Kreuz Zum Vergrößern, auf den grünen Button mit einem Gedankenstrich zu verkleinern, oder auf die grünen Pfeile für benachbarte Karten.


METAR-TAF: